Agana Heights, GU

9:14 AM ChST on August 01, 2015 (GMT +1000)
Maite | | Change Station
CLOSE
Current Station
Personal Weather Station
Location: Maite, GU
Elevation: 140 ft
Nearby Weather Stations

Elev 140 ft 13.48 °N, 144.76 °E | Updated 5 seconds ago

Partly Cloudy
Partly Cloudy
85.0 °F
Feels Like 98 °F
N
5.0
Wind Variable Wind from NNW
Gusts 6.0 mph

Today
High -- | Low -- °F
--% Chance of Precip.
Yesterday
High -- | Low -- °F
Precip. -- in
6:05 AM 6:48 PM
Full, 100% visible
Pressure 29.80 in
Visibility 10.0 miles
Clouds Few 2100 ft
Heat Index 98 °F
Dew Point 79 °F
Humidity 82%
Rainfall 0.00 in
Snow Depth Not available.
UV 6.2 out of 12
Pollen Not available.
Air Quality Not available.
Flu Activity Not available.
METAR PGUM 312254Z 35005KT 10SM FEW021 29/25 A2982 RMK AO2 SLP089 T02940250

More Conditions Fewer Conditions

Pressure 29.80 in
Visibility 10.0 miles
Clouds Few 2100 ft
Heat Index 98 °F
Dew Point 79 °F
Humidity 82%
Rainfall 0.00 in
Snow Depth Not available.
UV 6.2 out of 12
Pollen Not available.
Air Quality Not available.
Flu Activity Not available.
METAR PGUM 312254Z 35005KT 10SM FEW021 29/25 A2982 RMK AO2 SLP089 T02940250

More Conditions Fewer Conditions

10-Day Weather Forecast

×

Almanac

Astronomy

Aug. 01, 2015 Rise Set
Actual Time
Civil Twilight
Nautical Twilight
Astronomical Twilight
Moon
Length of Visible Light
Length of Day
Tomorrow will be .
, % of the Moon is Illuminated

Today's Extremes

State Highs State Lows

Community

WunderPhotos

Upload Photos

1,842,767 photos uploaded!

WunderBlogs® & News

Nearby

Air Quality

  Air Quality AQ Index Pollutant
Not available.

Snow Depth

Station Depth Elevation

Earthquake Activity

City Distance Mag. Time & Date
Minimum magnitude displayed is 2.5.

Coastal Water Temperatures

Place Temperature

Stations

Nearby Weather Stations

Station Location Temp. Windchill Dew Point Humidity Wind Precip. Elev Updated Type